Time;durP1;ratioP1;P1;durP2;ratioP2;P2;SDS_P1;SDS_P2;PMS_P1;PMS_P2;Temp;Humidity;BMP_temperature;BMP_pressure;BME280_temperature;BME280_humidity;BME280_pressure;Samples;Min_cycle;Max_cycle;Signal;HPM_P1;HPM_P2
2022/07/09 00:01:14;;;;;;;5.10;1.90;;;;;;;;;;4390114;32;20214;-87
2022/07/09 00:03:40;;;;;;;1.67;1.58;;;;;;;;;;4390668;32;20219;-80
2022/07/09 00:06:06;;;;;;;2.08;1.67;;;;;;;;;;4390525;32;20347;-86
2022/07/09 00:08:32;;;;;;;3.58;1.45;;;;;;;;;;4376592;32;20586;-80
2022/07/09 00:10:57;;;;;;;2.87;1.77;;;;;;;;;;4390251;32;20210;-79
2022/07/09 00:13:23;;;;;;;4.40;1.87;;;;;;;;;;4376650;32;20222;-81
2022/07/09 00:15:52;;;;;;;5.25;2.05;;;;;;;;;;4376418;32;20666;-80
2022/07/09 00:18:18;;;;;;;3.80;1.83;;;;;;;;;;4389157;32;20570;-81
2022/07/09 00:20:44;;;;;;;3.72;2.00;;;;;;;;;;4390584;32;20541;-80
2022/07/09 00:23:10;;;;;;;3.92;2.03;;;;;;;;;;4390377;32;20244;-80
2022/07/09 00:25:36;;;;;;;3.70;2.12;;;;;;;;;;4390687;32;20577;-86
2022/07/09 00:28:02;;;;;;;3.58;2.08;;;;;;;;;;4390334;32;20301;-81
2022/07/09 00:30:27;;;;;;;2.87;2.08;;;;;;;;;;4390572;32;20332;-80
2022/07/09 00:32:53;;;;;;;2.45;1.42;;;;;;;;;;4390290;32;20217;-81
2022/07/09 00:35:20;;;;;;;2.85;1.65;;;;;;;;;;4390351;32;20206;-80
2022/07/09 00:37:46;;;;;;;5.12;1.73;;;;;;;;;;4390323;32;20697;-80
2022/07/09 00:40:14;;;;;;;2.00;1.65;;;;;;;;;;4377138;32;20502;-86
2022/07/09 00:42:40;;;;;;;5.70;1.83;;;;;;;;;;4389898;32;20531;-80
2022/07/09 00:45:06;;;;;;;1.80;1.70;;;;;;;;;;4389993;32;20324;-83
2022/07/09 00:47:32;;;;;;;2.08;1.65;;;;;;;;;;4389951;32;20655;-85
2022/07/09 00:49:58;;;;;;;8.73;2.20;;;;;;;;;;4389817;32;20258;-80
2022/07/09 00:52:24;;;;;;;2.05;1.87;;;;;;;;;;4389929;32;20616;-80
2022/07/09 00:54:50;;;;;;;2.08;1.50;;;;;;;;;;4376509;32;20260;-84
2022/07/09 00:57:19;;;;;;;3.08;1.83;;;;;;;;;;4389706;32;20520;-80
2022/07/09 00:59:44;;;;;;;2.20;2.00;;;;;;;;;;4389731;32;20645;-80
2022/07/09 01:02:12;;;;;;;5.72;2.58;;;;;;;;;;4389986;32;20685;-85
2022/07/09 01:04:39;;;;;;;3.15;2.22;;;;;;;;;;4390072;32;20677;-80
2022/07/09 01:07:05;;;;;;;2.92;2.35;;;;;;;;;;4389740;32;20678;-79
2022/07/09 01:09:31;;;;;;;2.22;2.03;;;;;;;;;;4390373;32;20564;-80
2022/07/09 01:11:57;;;;;;;3.03;1.83;;;;;;;;;;4389342;32;20732;-80
2022/07/09 01:14:23;;;;;;;4.47;2.25;;;;;;;;;;4389900;32;20189;-85
2022/07/09 01:16:57;;;;;;;4.62;2.90;;;;;;;;;;4389457;32;20225;-85
2022/07/09 01:19:23;;;;;;;3.50;2.20;;;;;;;;;;4389964;32;20599;-86
2022/07/09 01:21:49;;;;;;;2.25;2.08;;;;;;;;;;4389414;32;20220;-80
2022/07/09 01:24:14;;;;;;;3.45;2.40;;;;;;;;;;4389589;32;20216;-80
2022/07/09 01:26:40;;;;;;;5.35;1.90;;;;;;;;;;4389547;32;20253;-86
2022/07/09 01:29:06;;;;;;;3.33;2.28;;;;;;;;;;4389944;32;20598;-80
2022/07/09 01:31:32;;;;;;;2.17;1.98;;;;;;;;;;4389555;32;20235;-81
2022/07/09 01:33:58;;;;;;;2.42;2.20;;;;;;;;;;4389729;32;20212;-86
2022/07/09 01:36:23;;;;;;;3.03;2.72;;;;;;;;;;4389513;32;20315;-80
2022/07/09 01:38:49;;;;;;;4.20;3.00;;;;;;;;;;4389612;32;20258;-81
2022/07/09 01:41:15;;;;;;;3.72;2.95;;;;;;;;;;4389070;32;20279;-79
2022/07/09 01:43:40;;;;;;;2.92;2.22;;;;;;;;;;4389551;32;20325;-85
2022/07/09 01:46:06;;;;;;;4.95;1.65;;;;;;;;;;4389388;32;20195;-80
2022/07/09 01:48:35;;;;;;;3.72;1.98;;;;;;;;;;4376101;32;20280;-80
2022/07/09 01:51:01;;;;;;;2.58;2.22;;;;;;;;;;4389348;32;20602;-81
2022/07/09 01:53:27;;;;;;;6.57;3.30;;;;;;;;;;4389247;32;20640;-79
2022/07/09 01:55:53;;;;;;;8.25;4.12;;;;;;;;;;4389102;32;20194;-86
2022/07/09 01:58:19;;;;;;;6.35;5.50;;;;;;;;;;4388324;32;20218;-85
2022/07/09 02:00:45;;;;;;;6.68;5.95;;;;;;;;;;4389164;32;20204;-80
2022/07/09 02:03:10;;;;;;;9.00;7.53;;;;;;;;;;4389122;32;20248;-80
2022/07/09 02:05:36;;;;;;;6.78;5.05;;;;;;;;;;4389009;32;20195;-86
2022/07/09 02:08:02;;;;;;;4.05;2.72;;;;;;;;;;4387566;32;20222;-85
2022/07/09 02:10:28;;;;;;;2.80;2.45;;;;;;;;;;4389114;32;20186;-80
2022/07/09 02:12:54;;;;;;;3.03;1.98;;;;;;;;;;4388969;32;20213;-80
2022/07/09 02:15:20;;;;;;;2.00;1.58;;;;;;;;;;4388938;32;20217;-80
2022/07/09 02:17:47;;;;;;;3.42;2.42;;;;;;;;;;4388914;32;20718;-85
2022/07/09 02:20:13;;;;;;;3.12;2.40;;;;;;;;;;4387675;32;20225;-87
2022/07/09 02:22:39;;;;;;;6.47;2.03;;;;;;;;;;4389087;32;20226;-85
2022/07/09 02:25:06;;;;;;;1.77;1.65;;;;;;;;;;4390500;32;20186;-80
2022/07/09 02:27:31;;;;;;;3.92;2.45;;;;;;;;;;4391744;32;20620;-80
2022/07/09 02:29:58;;;;;;;4.07;2.83;;;;;;;;;;4391612;32;20318;-85
2022/07/09 02:32:23;;;;;;;6.20;3.72;;;;;;;;;;4391679;32;20586;-80
2022/07/09 02:34:50;;;;;;;13.70;4.87;;;;;;;;;;4391549;32;20262;-87
2022/07/09 02:37:16;;;;;;;12.18;5.30;;;;;;;;;;4391214;32;20651;-86
2022/07/09 02:39:41;;;;;;;11.02;5.50;;;;;;;;;;4391148;32;20278;-80
2022/07/09 02:42:07;;;;;;;4.82;2.37;;;;;;;;;;4391256;32;20304;-87
2022/07/09 02:44:33;;;;;;;4.97;2.58;;;;;;;;;;4391377;32;20194;-80
2022/07/09 02:46:59;;;;;;;2.10;1.73;;;;;;;;;;4391111;32;20230;-86
2022/07/09 02:49:24;;;;;;;2.40;1.50;;;;;;;;;;4391248;32;20648;-80
2022/07/09 02:51:52;;;;;;;5.62;2.03;;;;;;;;;;4391283;32;20300;-86
2022/07/09 02:54:18;;;;;;;7.03;3.78;;;;;;;;;;4391432;32;20712;-85
2022/07/09 02:56:43;;;;;;;5.22;3.42;;;;;;;;;;4391172;32;20539;-85
2022/07/09 02:59:09;;;;;;;6.05;3.50;;;;;;;;;;4391472;32;20193;-80
2022/07/09 03:01:35;;;;;;;3.67;3.35;;;;;;;;;;4390820;32;20271;-81
2022/07/09 03:04:00;;;;;;;4.82;2.85;;;;;;;;;;4391149;32;20202;-79
2022/07/09 03:06:26;;;;;;;7.18;2.72;;;;;;;;;;4390956;32;20214;-85
2022/07/09 03:08:53;;;;;;;4.28;3.15;;;;;;;;;;4390933;32;20197;-80
2022/07/09 03:11:19;;;;;;;3.95;3.10;;;;;;;;;;4391029;32;20602;-86
2022/07/09 03:13:45;;;;;;;4.00;2.80;;;;;;;;;;4391287;32;20252;-82
2022/07/09 03:16:11;;;;;;;7.55;2.83;;;;;;;;;;4391081;32;20240;-79
2022/07/09 03:18:38;;;;;;;7.47;5.22;;;;;;;;;;4390627;32;20629;-79
2022/07/09 03:21:05;;;;;;;5.57;4.28;;;;;;;;;;4390555;32;20590;-83
2022/07/09 03:23:30;;;;;;;3.00;2.55;;;;;;;;;;4390594;32;20642;-81
2022/07/09 03:25:57;;;;;;;4.28;2.05;;;;;;;;;;4389277;32;20230;-80
2022/07/09 03:28:23;;;;;;;6.40;1.95;;;;;;;;;;4390749;32;20676;-80
2022/07/09 03:30:49;;;;;;;1.60;1.50;;;;;;;;;;4390739;32;20213;-81
2022/07/09 03:33:14;;;;;;;1.35;1.25;;;;;;;;;;4389480;32;20222;-87
2022/07/09 03:35:40;;;;;;;3.17;2.60;;;;;;;;;;4390628;32;20190;-80
2022/07/09 03:38:06;;;;;;;3.42;3.12;;;;;;;;;;4390527;32;20210;-81
2022/07/09 03:40:32;;;;;;;4.72;3.55;;;;;;;;;;4390379;32;20492;-80
2022/07/09 03:42:59;;;;;;;3.90;3.47;;;;;;;;;;4390383;32;20646;-87
2022/07/09 03:45:24;;;;;;;4.25;3.45;;;;;;;;;;4390785;32;20560;-80
2022/07/09 03:47:50;;;;;;;4.93;3.42;;;;;;;;;;4390048;32;20276;-80
2022/07/09 03:50:17;;;;;;;2.97;2.17;;;;;;;;;;4390175;32;20221;-87
2022/07/09 03:52:43;;;;;;;4.12;3.53;;;;;;;;;;4390146;32;20636;-87
2022/07/09 03:55:09;;;;;;;5.90;3.55;;;;;;;;;;4390238;32;20194;-80
2022/07/09 03:57:35;;;;;;;2.70;2.42;;;;;;;;;;4390037;32;20221;-86
2022/07/09 04:00:01;;;;;;;4.68;2.87;;;;;;;;;;4376215;32;20217;-81
2022/07/09 04:02:27;;;;;;;3.83;2.30;;;;;;;;;;4376105;32;20218;-86
2022/07/09 04:04:56;;;;;;;3.30;2.62;;;;;;;;;;4389999;32;20558;-80
2022/07/09 04:07:22;;;;;;;4.30;2.80;;;;;;;;;;4389905;32;20683;-85
2022/07/09 04:09:48;;;;;;;2.40;1.85;;;;;;;;;;4389968;32;20518;-80
2022/07/09 04:12:14;;;;;;;3.72;1.65;;;;;;;;;;4390039;32;20222;-80
2022/07/09 04:14:40;;;;;;;1.80;1.62;;;;;;;;;;4375990;32;20198;-80
2022/07/09 04:17:06;;;;;;;2.08;1.75;;;;;;;;;;4389687;32;20336;-80
2022/07/09 04:19:32;;;;;;;5.87;3.28;;;;;;;;;;4389401;32;20547;-79
2022/07/09 04:21:58;;;;;;;3.92;3.25;;;;;;;;;;4388367;32;20729;-80
2022/07/09 04:24:24;;;;;;;2.10;1.80;;;;;;;;;;4389640;32;20641;-79
2022/07/09 04:26:49;;;;;;;4.53;1.98;;;;;;;;;;4389835;32;20622;-80
2022/07/09 04:29:16;;;;;;;1.73;1.60;;;;;;;;;;4388238;32;20221;-80
2022/07/09 04:31:41;;;;;;;2.25;1.80;;;;;;;;;;4376079;32;20244;-80
2022/07/09 04:34:07;;;;;;;1.95;1.75;;;;;;;;;;4388575;32;20760;-80
2022/07/09 04:36:35;;;;;;;2.97;1.73;;;;;;;;;;4389742;32;20214;-81
2022/07/09 04:39:00;;;;;;;5.50;3.75;;;;;;;;;;4376592;32;20530;-80
2022/07/09 04:41:26;;;;;;;4.87;3.30;;;;;;;;;;4389853;32;20239;-80
2022/07/09 04:43:52;;;;;;;6.22;3.15;;;;;;;;;;4388863;32;20244;-80
2022/07/09 04:46:18;;;;;;;6.55;5.05;;;;;;;;;;4389723;32;20350;-79
2022/07/09 04:48:43;;;;;;;8.65;5.20;;;;;;;;;;4389220;32;20247;-80
2022/07/09 04:51:10;;;;;;;5.50;3.97;;;;;;;;;;4388261;32;20295;-85
2022/07/09 04:53:36;;;;;;;3.47;2.97;;;;;;;;;;4390164;32;20500;-80
2022/07/09 04:56:02;;;;;;;7.12;2.72;;;;;;;;;;4389583;32;20636;-80
2022/07/09 04:58:29;;;;;;;3.33;2.83;;;;;;;;;;4389687;32;20253;-85
2022/07/09 05:00:55;;;;;;;3.45;2.62;;;;;;;;;;4389218;32;20633;-80
2022/07/09 05:03:21;;;;;;;2.62;2.12;;;;;;;;;;4375726;32;20594;-80
2022/07/09 05:05:47;;;;;;;3.50;2.22;;;;;;;;;;4389064;32;20216;-82
2022/07/09 05:08:13;;;;;;;1.98;1.77;;;;;;;;;;4376003;32;20468;-80
2022/07/09 05:10:39;;;;;;;9.13;2.37;;;;;;;;;;4389399;32;20344;-80
2022/07/09 05:13:05;;;;;;;6.75;2.40;;;;;;;;;;4389219;32;20244;-80
2022/07/09 05:15:32;;;;;;;2.40;1.40;;;;;;;;;;4389169;32;20577;-85
2022/07/09 05:17:58;;;;;;;1.55;1.40;;;;;;;;;;4375541;32;20722;-86
2022/07/09 05:20:24;;;;;;;2.15;1.58;;;;;;;;;;4389162;32;20603;-85
2022/07/09 05:22:50;;;;;;;1.50;1.30;;;;;;;;;;4389025;32;20218;-85
2022/07/09 05:25:16;;;;;;;3.40;1.80;;;;;;;;;;4389200;32;20189;-85
2022/07/09 05:27:44;;;;;;;1.60;1.20;;;;;;;;;;4389134;32;20611;-85
2022/07/09 05:30:10;;;;;;;1.20;1.00;;;;;;;;;;4387519;32;20599;-80
2022/07/09 05:32:36;;;;;;;2.15;1.30;;;;;;;;;;4388911;32;20689;-86
2022/07/09 05:35:03;;;;;;;3.72;1.77;;;;;;;;;;4388912;32;20653;-80
2022/07/09 05:37:29;;;;;;;1.40;1.30;;;;;;;;;;4388605;32;20727;-83
2022/07/09 05:40:00;;;;;;;1.45;1.23;;;;;;;;;;4374873;32;20322;-83
2022/07/09 05:42:27;;;;;;;2.00;1.60;;;;;;;;;;4388573;32;20546;-83
2022/07/09 05:44:53;;;;;;;3.10;1.60;;;;;;;;;;4388493;32;20589;-82
2022/07/09 05:47:18;;;;;;;2.00;1.67;;;;;;;;;;4374875;32;20246;-84
2022/07/09 05:49:45;;;;;;;2.45;1.60;;;;;;;;;;4387224;32;20259;-82
2022/07/09 05:52:10;;;;;;;1.75;1.37;;;;;;;;;;4388460;32;20700;-81
2022/07/09 05:54:36;;;;;;;2.28;1.62;;;;;;;;;;4388730;32;20222;-82
2022/07/09 05:57:02;;;;;;;1.98;1.58;;;;;;;;;;4388210;32;20662;-83
2022/07/09 05:59:29;;;;;;;1.62;1.37;;;;;;;;;;4390630;32;20637;-82
2022/07/09 06:01:54;;;;;;;2.90;1.52;;;;;;;;;;4390074;32;20674;-81
2022/07/09 06:04:20;;;;;;;1.87;1.40;;;;;;;;;;4391408;32;20216;-88
2022/07/09 06:06:46;;;;;;;1.55;1.45;;;;;;;;;;4390173;32;20248;-86
2022/07/09 06:09:12;;;;;;;2.65;1.70;;;;;;;;;;4391745;32;20243;-88
2022/07/09 06:11:37;;;;;;;2.67;1.55;;;;;;;;;;4390180;32;20374;-81
2022/07/09 06:14:03;;;;;;;3.87;2.00;;;;;;;;;;4391652;32;20186;-86
2022/07/09 06:16:29;;;;;;;2.28;1.40;;;;;;;;;;4391374;32;20218;-82
2022/07/09 06:18:55;;;;;;;2.53;1.77;;;;;;;;;;4391560;32;20608;-83
2022/07/09 06:21:21;;;;;;;2.67;1.48;;;;;;;;;;4391200;32;20333;-81
2022/07/09 06:23:46;;;;;;;2.05;1.45;;;;;;;;;;4391534;32;20322;-88
2022/07/09 06:26:12;;;;;;;1.42;1.30;;;;;;;;;;4391472;32;20221;-83
2022/07/09 06:28:38;;;;;;;1.45;1.20;;;;;;;;;;4391360;32;20187;-88
2022/07/09 06:31:04;;;;;;;2.87;1.70;;;;;;;;;;4390263;32;20677;-82
2022/07/09 06:33:30;;;;;;;3.15;1.37;;;;;;;;;;4391388;32;20202;-88
2022/07/09 06:35:56;;;;;;;1.45;1.10;;;;;;;;;;4391403;32;20197;-83
2022/07/09 06:38:22;;;;;;;3.70;1.45;;;;;;;;;;4391543;32;20195;-82
2022/07/09 06:40:47;;;;;;;1.20;0.90;;;;;;;;;;4391373;32;20268;-83
2022/07/09 06:43:13;;;;;;;3.75;1.10;;;;;;;;;;4391125;32;20190;-82
2022/07/09 06:45:40;;;;;;;0.95;0.95;;;;;;;;;;4391680;32;20216;-85
2022/07/09 06:48:06;;;;;;;1.65;1.17;;;;;;;;;;4391178;32;20651;-82
2022/07/09 06:50:32;;;;;;;2.60;1.50;;;;;;;;;;4391782;32;20322;-83
2022/07/09 06:52:58;;;;;;;2.80;1.20;;;;;;;;;;4391524;32;20241;-82
2022/07/09 06:55:23;;;;;;;2.12;1.10;;;;;;;;;;4391024;32;20197;-82
2022/07/09 06:57:49;;;;;;;1.15;1.00;;;;;;;;;;4391718;32;20211;-82
2022/07/09 07:00:15;;;;;;;3.12;1.62;;;;;;;;;;4391143;32;20516;-81
2022/07/09 07:02:41;;;;;;;2.90;1.55;;;;;;;;;;4391020;32;20305;-87
2022/07/09 07:05:07;;;;;;;1.55;1.30;;;;;;;;;;4391465;32;20269;-86
2022/07/09 07:07:34;;;;;;;1.58;1.30;;;;;;;;;;4391280;32;20697;-83
2022/07/09 07:09:59;;;;;;;4.03;1.70;;;;;;;;;;4390472;32;20500;-83
2022/07/09 07:12:25;;;;;;;7.20;6.47;;;;;;;;;;4391236;32;20315;-91
2022/07/09 07:14:51;;;;;;;2.30;2.10;;;;;;;;;;4389562;32;20307;-81
2022/07/09 07:17:17;;;;;;;1.23;1.12;;;;;;;;;;4391250;32;20244;-89
2022/07/09 07:19:43;;;;;;;1.58;1.48;;;;;;;;;;4391317;32;20212;-82
2022/07/09 07:22:09;;;;;;;1.35;1.20;;;;;;;;;;4390797;32;20719;-82
2022/07/09 07:24:34;;;;;;;3.08;1.48;;;;;;;;;;4390982;32;20194;-82
2022/07/09 07:27:00;;;;;;;2.20;1.60;;;;;;;;;;4390980;32;20245;-93
2022/07/09 07:29:26;;;;;;;2.70;1.20;;;;;;;;;;4391185;32;20189;-91
2022/07/09 07:31:52;;;;;;;2.45;1.60;;;;;;;;;;4390852;32;20634;-83
2022/07/09 07:34:21;;;;;;;4.47;2.17;;;;;;;;;;4390473;32;20239;-83
2022/07/09 07:36:48;;;;;;;2.22;1.87;;;;;;;;;;4390103;32;20691;-91
2022/07/09 07:39:13;;;;;;;2.55;1.92;;;;;;;;;;4390655;32;20649;-83
2022/07/09 07:41:39;;;;;;;1.85;1.40;;;;;;;;;;4390657;32;20324;-84
2022/07/09 07:44:05;;;;;;;3.30;1.52;;;;;;;;;;4390721;32;20539;-92
2022/07/09 07:46:31;;;;;;;2.30;1.67;;;;;;;;;;4390751;32;20300;-84
2022/07/09 07:48:56;;;;;;;2.40;1.67;;;;;;;;;;4376961;32;20246;-82
2022/07/09 07:51:24;;;;;;;4.78;1.42;;;;;;;;;;4390790;32;20217;-81
2022/07/09 07:53:50;;;;;;;1.40;1.30;;;;;;;;;;4390834;32;20623;-89
2022/07/09 07:56:16;;;;;;;2.12;1.37;;;;;;;;;;4390751;32;20222;-82
2022/07/09 07:58:41;;;;;;;1.37;1.27;;;;;;;;;;4391385;32;20190;-91
2022/07/09 08:01:08;;;;;;;2.05;1.60;;;;;;;;;;4391105;32;20344;-82
2022/07/09 08:03:33;;;;;;;1.67;1.37;;;;;;;;;;4392711;32;20511;-82
2022/07/09 08:06:00;;;;;;;1.55;1.45;;;;;;;;;;4392182;32;20237;-83
2022/07/09 08:08:27;;;;;;;1.60;1.20;;;;;;;;;;4392215;32;20554;-91
2022/07/09 08:10:52;;;;;;;1.92;1.48;;;;;;;;;;4392185;32;20229;-83
2022/07/09 08:13:18;;;;;;;1.35;1.15;;;;;;;;;;4391268;32;20213;-82
2022/07/09 08:15:44;;;;;;;1.92;1.58;;;;;;;;;;4388878;32;20252;-82
2022/07/09 08:18:12;;;;;;;1.98;1.40;;;;;;;;;;4388751;32;20586;-83
2022/07/09 08:20:42;;;;;;;1.33;1.20;;;;;;;;;;4390024;32;20571;-83
2022/07/09 08:23:09;;;;;;;8.35;1.50;;;;;;;;;;4387938;32;20608;-83
2022/07/09 08:25:35;;;;;;;2.08;1.52;;;;;;;;;;4389820;32;20574;-82
2022/07/09 08:28:01;;;;;;;1.20;1.05;;;;;;;;;;4388755;32;20584;-83
2022/07/09 08:30:27;;;;;;;2.55;1.80;;;;;;;;;;4389482;32;20500;-83
2022/07/09 08:32:52;;;;;;;1.77;1.60;;;;;;;;;;4389489;32;20217;-86
2022/07/09 08:35:18;;;;;;;6.70;1.80;;;;;;;;;;4389669;32;20202;-81
2022/07/09 08:37:44;;;;;;;3.80;1.45;;;;;;;;;;4389327;32;20617;-85
2022/07/09 08:40:11;;;;;;;2.55;1.50;;;;;;;;;;4390232;32;20182;-85
2022/07/09 08:42:38;;;;;;;2.37;1.65;;;;;;;;;;4389190;32;20634;-81
2022/07/09 08:45:08;;;;;;;1.42;1.17;;;;;;;;;;4389382;32;20481;-83
2022/07/09 08:47:35;;;;;;;1.87;1.30;;;;;;;;;;4387792;32;20559;-84
2022/07/09 08:50:01;;;;;;;3.70;1.83;;;;;;;;;;4389126;32;20590;-85
2022/07/09 08:52:27;;;;;;;3.28;1.70;;;;;;;;;;4389133;32;20874;-84
2022/07/09 08:54:55;;;;;;;2.50;1.77;;;;;;;;;;4387963;32;20536;-86
2022/07/09 08:57:21;;;;;;;3.72;1.40;;;;;;;;;;4389002;32;20675;-84
2022/07/09 08:59:46;;;;;;;1.87;1.65;;;;;;;;;;4389246;32;20587;-83
2022/07/09 09:02:13;;;;;;;4.78;2.12;;;;;;;;;;4388789;32;20213;-84
2022/07/09 09:04:40;;;;;;;4.30;1.73;;;;;;;;;;4388904;32;20576;-84
2022/07/09 09:07:14;;;;;;;1.87;1.20;;;;;;;;;;4387527;32;20545;-83
2022/07/09 09:09:40;;;;;;;2.47;1.67;;;;;;;;;;4389180;32;20598;-83
2022/07/09 09:12:06;;;;;;;1.87;1.50;;;;;;;;;;4389411;32;20236;-81
2022/07/09 09:14:32;;;;;;;2.60;1.35;;;;;;;;;;4389888;32;20681;-84
2022/07/09 09:17:11;;;;;;;3.30;1.27;;;;;;;;;;4387484;32;20380;-85
2022/07/09 09:19:41;;;;;;;6.40;1.60;;;;;;;;;;4389093;32;20605;-89
2022/07/09 09:22:09;;;;;;;2.15;1.62;;;;;;;;;;4375091;32;20658;-85
2022/07/09 09:24:35;;;;;;;1.70;1.25;;;;;;;;;;4375405;32;20465;-89
2022/07/09 09:27:02;;;;;;;8.82;1.62;;;;;;;;;;4375097;32;20549;-85
2022/07/09 09:29:29;;;;;;;2.28;1.55;;;;;;;;;;4389064;32;20731;-88
2022/07/09 09:31:55;;;;;;;4.43;2.55;;;;;;;;;;4388496;32;20543;-85
2022/07/09 09:34:22;;;;;;;2.78;1.65;;;;;;;;;;4387214;32;20574;-86
2022/07/09 09:36:54;;;;;;;2.30;1.65;;;;;;;;;;4388536;32;20704;-88
2022/07/09 09:39:28;;;;;;;2.00;1.67;;;;;;;;;;4388906;32;20610;-86
2022/07/09 09:41:58;;;;;;;4.45;1.58;;;;;;;;;;4388288;32;20607;-87
2022/07/09 09:44:26;;;;;;;4.72;1.77;;;;;;;;;;4386727;32;20605;-88
2022/07/09 09:46:54;;;;;;;2.25;1.62;;;;;;;;;;4388493;32;20731;-88
2022/07/09 09:49:20;;;;;;;2.22;1.40;;;;;;;;;;4374784;32;20536;-85
2022/07/09 09:52:13;;;;;;;1.90;1.40;;;;;;;;;;4388697;32;20535;-86
2022/07/09 09:54:45;;;;;;;8.77;2.97;;;;;;;;;;4387537;32;20564;-91
2022/07/09 09:57:19;;;;;;;25.88;3.40;;;;;;;;;;4388460;32;20654;-89
2022/07/09 09:59:49;;;;;;;4.03;1.67;;;;;;;;;;4388276;32;20645;-86
2022/07/09 10:02:14;;;;;;;1.85;1.73;;;;;;;;;;4388270;32;20523;-89
2022/07/09 10:04:43;;;;;;;1.30;1.15;;;;;;;;;;4388161;32;20256;-88
2022/07/09 10:07:11;;;;;;;5.40;1.35;;;;;;;;;;4388102;32;20625;-85
2022/07/09 10:09:37;;;;;;;1.48;1.37;;;;;;;;;;4374880;32;20575;-88
2022/07/09 10:12:03;;;;;;;1.58;1.20;;;;;;;;;;4387146;32;20255;-86
2022/07/09 10:14:37;;;;;;;10.07;1.35;;;;;;;;;;4388471;32;20662;-87
2022/07/09 10:17:19;;;;;;;1.87;1.27;;;;;;;;;;4388329;32;20600;-87
2022/07/09 10:19:57;;;;;;;1.40;1.30;;;;;;;;;;4386974;32;20559;-86
2022/07/09 10:22:35;;;;;;;1.20;1.10;;;;;;;;;;4388245;32;20606;-88
2022/07/09 10:25:01;;;;;;;2.30;1.10;;;;;;;;;;4388296;32;20626;-87
2022/07/09 10:27:27;;;;;;;0.75;0.75;;;;;;;;;;4387976;32;20669;-88
2022/07/09 10:29:56;;;;;;;0.73;0.73;;;;;;;;;;4388135;32;20269;-87
2022/07/09 10:32:30;;;;;;;2.12;0.70;;;;;;;;;;4387064;32;20622;-87
2022/07/09 10:35:00;;;;;;;1.23;1.02;;;;;;;;;;4387993;32;20504;-86
2022/07/09 10:37:45;;;;;;;2.62;1.48;;;;;;;;;;4388042;32;20671;-86
2022/07/09 10:40:13;;;;;;;5.68;1.10;;;;;;;;;;4388959;32;20220;-88
2022/07/09 10:42:41;;;;;;;0.80;0.80;;;;;;;;;;4388257;32;20598;-88
2022/07/09 10:45:28;;;;;;;2.33;1.20;;;;;;;;;;4376029;32;20558;-84
2022/07/09 10:48:01;;;;;;;1.58;1.08;;;;;;;;;;4390506;32;20681;-84
2022/07/09 10:50:30;;;;;;;2.12;1.23;;;;;;;;;;4377120;32;20666;-82
2022/07/09 10:52:57;;;;;;;2.17;1.33;;;;;;;;;;4390430;32;20647;-85
2022/07/09 10:55:26;;;;;;;1.00;0.82;;;;;;;;;;4389387;32;20505;-87
2022/07/09 10:57:53;;;;;;;1.87;1.30;;;;;;;;;;4390758;32;20520;-84
2022/07/09 11:00:23;;;;;;;1.02;0.88;;;;;;;;;;4389608;32;20612;-84
2022/07/09 11:03:01;;;;;;;1.08;0.90;;;;;;;;;;4390622;32;20632;-82
2022/07/09 11:05:28;;;;;;;1.10;0.95;;;;;;;;;;4390964;32;20909;-83
2022/07/09 11:08:05;;;;;;;1.75;1.08;;;;;;;;;;4391022;32;20539;-83
2022/07/09 11:10:34;;;;;;;0.70;0.70;;;;;;;;;;4391368;32;20591;-83
2022/07/09 11:13:01;;;;;;;1.83;0.82;;;;;;;;;;4377506;32;20732;-90
2022/07/09 11:15:29;;;;;;;1.37;0.90;;;;;;;;;;4390912;32;20576;-85
2022/07/09 11:18:11;;;;;;;2.17;0.70;;;;;;;;;;4389711;32;20586;-84
2022/07/09 11:20:41;;;;;;;1.05;0.70;;;;;;;;;;4389133;32;20652;-82
2022/07/09 11:23:12;;;;;;;2.20;1.50;;;;;;;;;;4390029;32;20729;-82
2022/07/09 11:25:38;;;;;;;1.42;1.12;;;;;;;;;;4390626;32;20676;-83
2022/07/09 11:28:04;;;;;;;3.87;1.37;;;;;;;;;;4390230;32;20575;-84
2022/07/09 11:30:32;;;;;;;1.33;0.90;;;;;;;;;;4390275;32;20554;-90
2022/07/09 11:33:01;;;;;;;1.02;0.93;;;;;;;;;;4388996;32;20730;-91
2022/07/09 11:35:29;;;;;;;3.60;0.90;;;;;;;;;;4389059;32;20740;-83
2022/07/09 11:38:00;;;;;;;1.35;1.10;;;;;;;;;;4389803;32;20574;-84
2022/07/09 11:40:27;;;;;;;0.85;0.75;;;;;;;;;;4390004;32;20576;-89
2022/07/09 11:42:53;;;;;;;2.17;1.00;;;;;;;;;;4388958;32;20619;-90
2022/07/09 11:45:27;;;;;;;2.30;1.23;;;;;;;;;;4389952;32;20511;-83
2022/07/09 11:48:07;;;;;;;1.08;0.98;;;;;;;;;;4376909;32;20627;-83
2022/07/09 11:50:41;;;;;;;0.80;0.80;;;;;;;;;;4390257;32;20586;-82
2022/07/09 11:53:07;;;;;;;1.10;0.80;;;;;;;;;;4389700;32;20648;-82
2022/07/09 11:55:35;;;;;;;1.23;1.02;;;;;;;;;;4389557;32;20516;-90
2022/07/09 11:58:08;;;;;;;4.70;0.93;;;;;;;;;;4388073;32;20594;-82
2022/07/09 12:00:39;;;;;;;0.98;0.85;;;;;;;;;;4389712;32;20515;-81
2022/07/09 12:03:06;;;;;;;2.28;1.15;;;;;;;;;;4389711;32;20550;-83
2022/07/09 12:05:37;;;;;;;5.35;1.25;;;;;;;;;;4389316;32;20595;-83
2022/07/09 12:08:10;;;;;;;4.37;2.65;;;;;;;;;;4389428;32;20566;-88
2022/07/09 12:10:39;;;;;;;2.17;1.35;;;;;;;;;;4389422;32;20598;-82
2022/07/09 12:13:06;;;;;;;2.42;2.00;;;;;;;;;;4389422;32;20676;-88
2022/07/09 12:15:32;;;;;;;2.17;1.40;;;;;;;;;;4389346;32;20519;-88
2022/07/09 12:18:00;;;;;;;1.67;1.37;;;;;;;;;;4389407;32;20604;-83
2022/07/09 12:20:28;;;;;;;2.58;2.03;;;;;;;;;;4389484;32;20633;-89
2022/07/09 12:22:54;;;;;;;2.95;1.20;;;;;;;;;;4387986;32;20539;-82
2022/07/09 12:25:20;;;;;;;1.67;0.90;;;;;;;;;;4389532;32;20217;-82
2022/07/09 12:27:47;;;;;;;0.95;0.82;;;;;;;;;;4387884;32;20682;-82
2022/07/09 12:30:13;;;;;;;1.42;0.90;;;;;;;;;;4389500;32;20489;-82
2022/07/09 12:32:40;;;;;;;1.85;1.10;;;;;;;;;;4375562;32;20586;-83
2022/07/09 12:35:07;;;;;;;2.53;1.00;;;;;;;;;;4389212;32;20623;-82
2022/07/09 12:37:36;;;;;;;1.23;0.70;;;;;;;;;;4389178;32;20603;-89
2022/07/09 12:40:04;;;;;;;0.98;0.85;;;;;;;;;;4389844;32;20520;-83
2022/07/09 12:42:30;;;;;;;2.28;0.80;;;;;;;;;;4389051;32;20673;-83
2022/07/09 12:44:56;;;;;;;0.70;0.70;;;;;;;;;;4363244;32;20218;-89
2022/07/09 12:47:22;;;;;;;0.80;0.80;;;;;;;;;;4388032;32;20564;-88
2022/07/09 12:49:49;;;;;;;0.70;0.70;;;;;;;;;;4389253;32;20569;-89
2022/07/09 12:52:14;;;;;;;3.10;0.90;;;;;;;;;;4389054;32;20563;-82
2022/07/09 12:54:40;;;;;;;2.12;0.88;;;;;;;;;;4388855;32;20206;-82
2022/07/09 12:57:06;;;;;;;2.08;1.05;;;;;;;;;;4388786;32;20221;-83
2022/07/09 12:59:32;;;;;;;1.25;0.80;;;;;;;;;;4389000;32;20212;-88
2022/07/09 13:01:58;;;;;;;0.88;0.80;;;;;;;;;;4388959;32;20576;-82
2022/07/09 13:04:25;;;;;;;0.90;0.80;;;;;;;;;;4388904;32;20636;-84
2022/07/09 13:06:52;;;;;;;0.80;0.80;;;;;;;;;;4388737;32;20658;-83
2022/07/09 13:09:18;;;;;;;6.95;0.93;;;;;;;;;;4388838;32;20542;-83
2022/07/09 13:11:44;;;;;;;1.10;0.98;;;;;;;;;;4388896;32;20213;-83
2022/07/09 13:14:10;;;;;;;1.98;1.10;;;;;;;;;;4389451;32;20230;-90
2022/07/09 13:16:36;;;;;;;1.77;0.93;;;;;;;;;;4388700;32;20240;-83
2022/07/09 13:19:03;;;;;;;0.95;0.70;;;;;;;;;;4389147;32;20661;-84
2022/07/09 13:21:30;;;;;;;0.70;0.70;;;;;;;;;;4387584;32;20543;-83
2022/07/09 13:23:56;;;;;;;1.08;0.90;;;;;;;;;;4389269;32;20237;-82
2022/07/09 13:26:22;;;;;;;1.00;0.70;;;;;;;;;;4389225;32;20222;-83
2022/07/09 13:28:48;;;;;;;1.25;0.98;;;;;;;;;;4389215;32;20397;-84
2022/07/09 13:31:14;;;;;;;0.82;0.80;;;;;;;;;;4389147;32;20634;-83
2022/07/09 13:33:41;;;;;;;2.85;1.00;;;;;;;;;;4388907;32;20664;-82
2022/07/09 13:36:08;;;;;;;0.77;0.73;;;;;;;;;;4388801;32;20599;-89
2022/07/09 13:38:34;;;;;;;1.02;0.80;;;;;;;;;;4389228;32;20632;-89
2022/07/09 13:41:00;;;;;;;0.70;0.65;;;;;;;;;;4388862;32;20178;-89
2022/07/09 13:43:26;;;;;;;4.50;1.02;;;;;;;;;;4388894;32;20607;-83
2022/07/09 13:45:55;;;;;;;3.12;0.82;;;;;;;;;;4388857;32;20261;-83
2022/07/09 13:48:21;;;;;;;1.00;0.90;;;;;;;;;;4389049;32;20567;-83
2022/07/09 13:50:47;;;;;;;1.00;0.82;;;;;;;;;;4389396;32;20649;-85
2022/07/09 13:53:13;;;;;;;1.52;0.98;;;;;;;;;;4389719;32;20273;-82
2022/07/09 13:55:40;;;;;;;0.80;0.80;;;;;;;;;;4375215;32;20544;-87
2022/07/09 13:58:06;;;;;;;1.58;1.17;;;;;;;;;;4388702;32;20676;-83
2022/07/09 14:00:33;;;;;;;1.37;1.15;;;;;;;;;;4388710;32;20614;-87
2022/07/09 14:02:59;;;;;;;1.05;0.60;;;;;;;;;;4388596;32;20661;-82
2022/07/09 14:05:26;;;;;;;1.05;0.70;;;;;;;;;;4388517;32;20508;-82
2022/07/09 14:07:52;;;;;;;0.70;0.70;;;;;;;;;;4387657;32;20574;-82
2022/07/09 14:10:19;;;;;;;1.73;0.73;;;;;;;;;;4388877;32;20261;-83
2022/07/09 14:12:46;;;;;;;1.75;0.73;;;;;;;;;;4375542;32;20547;-82
2022/07/09 14:15:12;;;;;;;5.72;0.90;;;;;;;;;;4388859;32;20558;-83
2022/07/09 14:17:39;;;;;;;6.37;1.00;;;;;;;;;;4388512;32;20713;-87
2022/07/09 14:20:08;;;;;;;1.00;0.90;;;;;;;;;;4389892;32;20582;-82
2022/07/09 14:22:34;;;;;;;3.25;1.75;;;;;;;;;;4391380;32;20635;-83
2022/07/09 14:25:01;;;;;;;0.90;0.82;;;;;;;;;;4391776;32;20251;-82
2022/07/09 14:27:27;;;;;;;6.55;1.02;;;;;;;;;;4391211;32;20531;-83
2022/07/09 14:29:53;;;;;;;1.45;0.90;;;;;;;;;;4391281;32;20653;-82
2022/07/09 14:32:21;;;;;;;1.30;1.10;;;;;;;;;;4391046;32;20658;-83
2022/07/09 14:34:47;;;;;;;0.80;0.80;;;;;;;;;;4391746;32;20544;-83
2022/07/09 14:37:12;;;;;;;3.50;1.20;;;;;;;;;;4391131;32;20555;-83
2022/07/09 14:39:38;;;;;;;1.30;0.90;;;;;;;;;;4390328;32;20247;-82
2022/07/09 14:42:04;;;;;;;3.37;0.90;;;;;;;;;;4391041;32;20276;-83